createdAt,value
2018-07-02T00:00:13.170Z,0.00
2018-07-02T00:01:12.979Z,0.00
2018-07-02T00:03:06.358Z,0.00
2018-07-02T00:04:06.276Z,0.00
2018-07-02T00:05:59.556Z,0.00
2018-07-02T00:06:59.493Z,0.00
2018-07-02T00:08:52.788Z,0.00
2018-07-02T00:09:52.709Z,0.00
2018-07-02T00:11:45.992Z,0.00
2018-07-02T00:12:45.925Z,0.00
2018-07-02T00:14:39.225Z,0.00
2018-07-02T00:15:39.148Z,0.00
2018-07-02T00:17:32.420Z,0.00
2018-07-02T00:18:32.358Z,0.00
2018-07-02T00:20:25.657Z,0.00
2018-07-02T00:21:25.583Z,0.00
2018-07-02T00:23:18.874Z,0.00
2018-07-02T00:24:18.786Z,0.00
2018-07-02T00:26:12.069Z,0.00
2018-07-02T00:27:12.007Z,0.00
2018-07-02T00:29:05.307Z,0.00
2018-07-02T00:30:05.223Z,0.00
2018-07-02T00:31:58.500Z,0.00
2018-07-02T00:32:58.438Z,0.00
2018-07-02T00:34:51.734Z,0.00
2018-07-02T00:35:51.655Z,0.00
2018-07-02T00:37:44.921Z,0.00
2018-07-02T00:38:44.861Z,0.00
2018-07-02T00:40:38.156Z,0.00
2018-07-02T00:41:38.085Z,0.00
2018-07-02T00:43:31.352Z,0.00
2018-07-02T00:44:31.289Z,0.00
2018-07-02T00:46:24.585Z,0.00
2018-07-02T00:47:24.504Z,0.00
2018-07-02T00:49:17.800Z,0.00
2018-07-02T00:50:17.718Z,0.00
2018-07-02T00:52:10.995Z,0.00
2018-07-02T00:53:10.935Z,0.00
2018-07-02T00:55:04.231Z,0.00
2018-07-02T00:56:04.149Z,0.00
2018-07-02T00:57:57.416Z,0.00
2018-07-02T00:58:57.353Z,0.00
2018-07-02T01:00:50.755Z,0.00
2018-07-02T01:01:50.568Z,0.00
2018-07-02T01:03:43.844Z,0.00
2018-07-02T01:04:43.782Z,0.00
2018-07-02T01:06:37.078Z,0.00
2018-07-02T01:07:36.995Z,0.00
2018-07-02T01:09:30.339Z,0.00
2018-07-02T01:10:30.275Z,0.00
2018-07-02T01:12:23.570Z,0.00
2018-07-02T01:13:23.489Z,0.00
2018-07-02T01:15:16.301Z,0.00
2018-07-02T01:16:16.218Z,0.00
2018-07-02T01:18:09.500Z,0.00
2018-07-02T01:19:09.433Z,0.00
2018-07-02T01:21:02.730Z,0.00
2018-07-02T01:22:02.647Z,0.00
2018-07-02T01:23:55.926Z,0.00
2018-07-02T01:24:55.865Z,0.00
2018-07-02T01:26:49.155Z,0.00
2018-07-02T01:27:49.073Z,0.00
2018-07-02T01:29:42.351Z,0.00
2018-07-02T01:30:42.290Z,0.00
2018-07-02T01:32:35.585Z,0.00
2018-07-02T01:33:35.503Z,0.00
2018-07-02T01:35:28.799Z,0.00
2018-07-02T01:36:28.716Z,0.00
2018-07-02T01:38:22.099Z,0.00
2018-07-02T01:39:21.921Z,0.00
2018-07-02T01:41:15.214Z,0.00
2018-07-02T01:42:15.135Z,0.00
2018-07-02T01:44:08.411Z,0.00
2018-07-02T01:45:08.349Z,0.00
2018-07-02T01:47:01.643Z,0.00
2018-07-02T01:48:01.561Z,0.00
2018-07-02T01:49:54.841Z,0.00
2018-07-02T01:50:54.774Z,0.00
2018-07-02T01:52:48.070Z,0.00
2018-07-02T01:53:47.988Z,0.00
2018-07-02T01:55:41.367Z,0.00
2018-07-02T01:56:41.198Z,0.00
2018-07-02T01:58:34.497Z,0.00
2018-07-02T01:59:34.413Z,0.00
2018-07-02T02:01:27.710Z,0.00
2018-07-02T02:02:27.626Z,0.00
2018-07-02T02:04:20.902Z,0.00
2018-07-02T02:05:20.841Z,0.00
2018-07-02T02:07:14.241Z,0.00
2018-07-02T02:08:14.052Z,0.00
2018-07-02T02:10:07.433Z,0.00
2018-07-02T02:11:07.262Z,0.00
2018-07-02T02:13:00.557Z,0.00
2018-07-02T02:14:00.474Z,0.00
2018-07-02T02:15:53.751Z,0.00
2018-07-02T02:16:53.687Z,0.00
2018-07-02T02:18:46.980Z,0.00
2018-07-02T02:19:46.897Z,0.00
2018-07-02T02:21:40.190Z,0.00
2018-07-02T02:22:40.106Z,0.00
2018-07-02T02:24:33.383Z,0.00
2018-07-02T02:25:33.318Z,0.00
2018-07-02T02:27:26.718Z,0.00
2018-07-02T02:28:26.532Z,0.00
2018-07-02T02:30:19.806Z,0.00
2018-07-02T02:31:19.743Z,0.00
2018-07-02T02:33:13.036Z,0.00
2018-07-02T02:34:12.953Z,0.00
2018-07-02T02:36:06.333Z,0.00
2018-07-02T02:37:06.167Z,0.00
2018-07-02T02:38:59.459Z,0.00
2018-07-02T02:39:59.374Z,0.00
2018-07-02T02:41:52.669Z,0.00
2018-07-02T02:42:52.584Z,0.00
2018-07-02T02:44:45.879Z,0.00
2018-07-02T02:45:45.796Z,0.00
2018-07-02T02:47:39.072Z,0.00
2018-07-02T02:48:39.008Z,0.00
2018-07-02T02:50:32.407Z,0.00
2018-07-02T02:51:32.273Z,0.00
2018-07-02T02:53:25.651Z,0.00
2018-07-02T02:54:25.483Z,0.00
2018-07-02T02:56:18.781Z,0.00
2018-07-02T02:57:18.699Z,0.00
2018-07-02T02:59:11.971Z,0.00
2018-07-02T03:00:11.905Z,0.00
2018-07-02T03:02:05.202Z,0.00
2018-07-02T03:03:05.119Z,0.00
2018-07-02T03:04:58.496Z,0.00
2018-07-02T03:05:58.331Z,0.00
2018-07-02T03:07:51.625Z,0.00
2018-07-02T03:08:51.541Z,0.00
2018-07-02T03:10:44.832Z,0.00
2018-07-02T03:11:44.750Z,0.00
2018-07-02T03:13:38.026Z,5.63
2018-07-02T03:14:37.960Z,5.63
2018-07-02T03:16:31.254Z,5.63
2018-07-02T03:17:31.171Z,5.63
2018-07-02T03:19:24.552Z,5.63
2018-07-02T03:20:24.412Z,5.63
2018-07-02T03:22:17.783Z,5.63
2018-07-02T03:23:17.592Z,5.63
2018-07-02T03:25:10.863Z,5.63
2018-07-02T03:26:10.800Z,5.63
2018-07-02T03:28:04.085Z,11.25
2018-07-02T03:29:04.004Z,11.25
2018-07-02T03:30:57.313Z,11.25
2018-07-02T03:31:57.213Z,11.25
2018-07-02T03:33:50.489Z,11.25
2018-07-02T03:34:50.420Z,11.25
2018-07-02T03:36:43.823Z,11.25
2018-07-02T03:37:43.635Z,11.25
2018-07-02T03:39:36.905Z,16.88
2018-07-02T03:40:36.840Z,16.88
2018-07-02T03:42:30.139Z,16.88
2018-07-02T03:43:30.053Z,16.88
2018-07-02T03:45:23.438Z,16.88
2018-07-02T03:46:23.261Z,16.88
2018-07-02T03:48:16.548Z,16.88
2018-07-02T03:49:16.463Z,22.50
2018-07-02T03:51:09.739Z,22.50
2018-07-02T03:52:09.696Z,22.50
2018-07-02T03:54:02.968Z,22.50
2018-07-02T03:55:02.884Z,22.50
2018-07-02T03:56:56.178Z,22.50
2018-07-02T03:57:56.095Z,22.50
2018-07-02T03:59:49.370Z,28.13
2018-07-02T04:00:49.307Z,28.13
2018-07-02T04:02:42.602Z,28.13
2018-07-02T04:03:42.518Z,28.13
2018-07-02T04:05:35.793Z,28.13
2018-07-02T04:06:35.728Z,28.13
2018-07-02T04:08:29.023Z,28.13
2018-07-02T04:09:28.939Z,28.13
2018-07-02T04:11:22.212Z,33.75
2018-07-02T04:12:22.150Z,33.75
2018-07-02T04:14:15.445Z,33.75
2018-07-02T04:15:15.357Z,33.75
2018-07-02T04:17:08.777Z,33.75
2018-07-02T04:18:08.570Z,33.75
2018-07-02T04:20:01.950Z,33.75
2018-07-02T04:21:01.782Z,33.75
2018-07-02T04:22:55.185Z,39.38
2018-07-02T04:23:54.991Z,39.38
2018-07-02T04:25:48.341Z,39.38
2018-07-02T04:26:48.274Z,39.38
2018-07-02T04:28:41.674Z,39.38
2018-07-02T04:29:41.477Z,39.38
2018-07-02T04:31:34.856Z,39.38
2018-07-02T04:32:34.694Z,39.38
2018-07-02T04:34:27.980Z,39.38
2018-07-02T04:35:27.896Z,39.38
2018-07-02T04:37:21.171Z,45.00
2018-07-02T04:38:21.106Z,45.00
2018-07-02T04:40:14.509Z,45.00
2018-07-02T04:41:14.318Z,45.00
2018-07-02T04:43:07.612Z,45.00
2018-07-02T04:44:07.529Z,45.00
2018-07-02T04:46:00.908Z,45.00
2018-07-02T04:47:00.741Z,45.00
2018-07-02T04:48:54.035Z,45.00
2018-07-02T04:49:53.952Z,45.00
2018-07-02T04:51:47.332Z,45.00
2018-07-02T04:52:47.163Z,45.00
2018-07-02T04:54:40.561Z,50.63
2018-07-02T04:55:40.376Z,50.63
2018-07-02T04:57:33.648Z,50.63
2018-07-02T04:58:33.587Z,50.63
2018-07-02T05:00:26.880Z,50.63
2018-07-02T05:01:26.797Z,50.63
2018-07-02T05:03:20.073Z,50.63
2018-07-02T05:04:20.009Z,50.63
2018-07-02T05:06:13.303Z,50.63
2018-07-02T05:07:13.220Z,50.63
2018-07-02T05:09:06.507Z,50.63
2018-07-02T05:10:06.433Z,50.63
2018-07-02T05:11:59.727Z,50.63
2018-07-02T05:12:59.643Z,50.63
2018-07-02T05:14:52.938Z,50.63
2018-07-02T05:15:52.856Z,50.63
2018-07-02T05:17:46.122Z,56.25
2018-07-02T05:18:46.060Z,56.25
2018-07-02T05:20:39.359Z,56.25
2018-07-02T05:21:39.279Z,56.25
2018-07-02T05:23:32.553Z,56.25
2018-07-02T05:24:32.486Z,56.25
2018-07-02T05:26:25.782Z,56.25
2018-07-02T05:27:25.708Z,56.25
2018-07-02T05:29:18.976Z,56.25
2018-07-02T05:30:18.914Z,56.25
2018-07-02T05:32:12.205Z,56.25
2018-07-02T05:33:12.125Z,56.25
2018-07-02T05:35:05.439Z,56.25
2018-07-02T05:36:05.349Z,56.25
2018-07-02T05:37:58.625Z,56.25
2018-07-02T05:38:58.628Z,56.25
2018-07-02T05:40:51.861Z,56.25
2018-07-02T05:41:51.774Z,56.25
2018-07-02T05:43:45.053Z,61.88
2018-07-02T05:44:44.987Z,61.88
2018-07-02T05:46:38.285Z,61.88
2018-07-02T05:47:38.202Z,61.88
2018-07-02T05:49:31.481Z,61.88
2018-07-02T05:50:31.437Z,61.88
2018-07-02T05:52:24.713Z,61.88
2018-07-02T05:53:24.630Z,61.88
2018-07-02T05:55:17.923Z,61.88
2018-07-02T05:56:17.843Z,61.88
2018-07-02T05:58:11.135Z,61.88
2018-07-02T05:59:11.060Z,61.88
2018-07-02T06:01:04.460Z,61.88
2018-07-02T06:02:04.274Z,61.88
2018-07-02T06:03:57.552Z,61.88
2018-07-02T06:04:57.484Z,67.50
2018-07-02T06:06:50.783Z,67.50
2018-07-02T06:07:50.764Z,67.50
2018-07-02T06:09:44.082Z,73.13
2018-07-02T06:10:43.918Z,78.75
2018-07-02T06:12:37.297Z,84.38
2018-07-02T06:13:37.134Z,90.00
2018-07-02T06:15:30.429Z,106.88
2018-07-02T06:16:30.409Z,140.63
2018-07-02T06:18:23.647Z,298.13
2018-07-02T06:19:23.569Z,365.63
2018-07-02T06:21:16.871Z,382.50
2018-07-02T06:22:16.796Z,382.50
2018-07-02T06:24:10.082Z,360.00
2018-07-02T06:25:10.027Z,348.75
2018-07-02T06:27:03.365Z,343.13
2018-07-02T06:28:03.291Z,337.50
2018-07-02T06:29:56.686Z,320.63
2018-07-02T06:30:56.529Z,315.00
2018-07-02T06:32:49.845Z,309.38
2018-07-02T06:33:49.774Z,303.75
2018-07-02T06:35:43.066Z,309.38
2018-07-02T06:36:43.018Z,309.38
2018-07-02T06:38:36.329Z,292.50
2018-07-02T06:39:36.262Z,292.50
2018-07-02T06:41:30.578Z,292.50
2018-07-02T06:42:30.507Z,286.88
2018-07-02T06:44:23.801Z,286.88
2018-07-02T06:45:23.752Z,286.88
2018-07-02T06:47:17.070Z,292.50
2018-07-02T06:48:17.003Z,286.88
2018-07-02T06:50:10.299Z,253.13
2018-07-02T06:51:10.250Z,230.63
2018-07-02T06:53:03.567Z,225.00
2018-07-02T06:54:03.499Z,225.00
2018-07-02T06:55:56.801Z,225.00
2018-07-02T06:56:56.747Z,225.00
2018-07-02T06:58:50.065Z,225.00
2018-07-02T06:59:49.998Z,225.00
2018-07-02T07:01:43.353Z,230.63
2018-07-02T07:02:43.302Z,230.63
2018-07-02T07:04:36.621Z,241.88
2018-07-02T07:05:36.553Z,247.50
2018-07-02T07:07:30.871Z,253.13
2018-07-02T07:08:30.844Z,258.75
2018-07-02T07:10:24.105Z,264.38
2018-07-02T07:11:24.055Z,264.38
2018-07-02T07:13:17.372Z,270.00
2018-07-02T07:14:17.306Z,275.63
2018-07-02T07:16:10.602Z,275.63
2018-07-02T07:17:10.553Z,270.00
2018-07-02T07:19:03.875Z,236.25
2018-07-02T07:20:03.806Z,225.00
2018-07-02T07:21:57.102Z,213.75
2018-07-02T07:22:57.057Z,202.50
2018-07-02T07:24:50.377Z,202.50
2018-07-02T07:25:50.346Z,202.50
2018-07-02T07:27:43.627Z,202.50
2018-07-02T07:28:43.563Z,208.13
2018-07-02T07:30:36.861Z,208.13
2018-07-02T07:31:36.859Z,208.13
2018-07-02T07:33:30.129Z,213.75
2018-07-02T07:34:30.060Z,219.38
2018-07-02T07:36:23.356Z,225.00
2018-07-02T07:37:23.337Z,219.38
2018-07-02T07:39:16.730Z,225.00
2018-07-02T07:40:16.559Z,230.63
2018-07-02T07:42:09.960Z,241.88
2018-07-02T07:43:09.803Z,241.88
2018-07-02T07:45:03.120Z,253.13
2018-07-02T07:46:03.053Z,264.38
2018-07-02T07:47:56.355Z,281.25
2018-07-02T07:48:56.302Z,286.88
2018-07-02T07:50:49.616Z,298.13
2018-07-02T07:51:49.548Z,303.75
2018-07-02T07:53:42.864Z,326.25
2018-07-02T07:54:42.793Z,343.13
2018-07-02T07:56:36.089Z,343.13
2018-07-02T07:57:36.039Z,343.13
2018-07-02T07:59:29.424Z,337.50
2018-07-02T08:00:29.306Z,343.13
2018-07-02T08:02:22.596Z,337.50
2018-07-02T08:03:22.563Z,337.50
2018-07-02T08:05:15.996Z,343.13
2018-07-02T08:06:15.795Z,343.13
2018-07-02T08:08:09.093Z,343.13
2018-07-02T08:09:09.046Z,343.13
2018-07-02T08:11:02.369Z,348.75
2018-07-02T08:12:02.300Z,348.75
2018-07-02T08:13:55.629Z,348.75
2018-07-02T08:14:55.580Z,354.38
2018-07-02T08:16:48.844Z,354.38
2018-07-02T08:17:48.794Z,365.63
2018-07-02T08:19:42.210Z,354.38
2018-07-02T08:20:42.033Z,354.38
2018-07-02T08:22:35.324Z,365.63
2018-07-02T08:23:35.276Z,365.63
2018-07-02T08:25:28.698Z,360.00
2018-07-02T08:26:28.529Z,360.00
2018-07-02T08:28:21.817Z,365.63
2018-07-02T08:29:21.770Z,371.25
2018-07-02T08:31:15.076Z,360.00
2018-07-02T08:32:15.002Z,365.63
2018-07-02T08:34:08.429Z,348.75
2018-07-02T08:35:08.293Z,331.88
2018-07-02T08:37:01.586Z,315.00
2018-07-02T08:38:01.531Z,303.75
2018-07-02T08:39:54.835Z,258.75
2018-07-02T08:40:54.762Z,225.00
2018-07-02T08:42:48.048Z,191.25
2018-07-02T08:43:47.999Z,191.25
2018-07-02T08:45:41.410Z,191.25
2018-07-02T08:46:41.230Z,191.25
2018-07-02T08:48:34.517Z,191.25
2018-07-02T08:49:34.463Z,191.25
2018-07-02T08:51:27.879Z,196.88
2018-07-02T08:52:27.695Z,191.25
2018-07-02T08:54:20.977Z,191.25
2018-07-02T08:55:20.929Z,191.25
2018-07-02T08:57:14.225Z,191.25
2018-07-02T08:58:14.217Z,191.25
2018-07-02T09:00:07.457Z,191.25
2018-07-02T09:01:07.384Z,191.25
2018-07-02T09:03:00.665Z,191.25
2018-07-02T09:04:00.613Z,191.25
2018-07-02T09:05:53.913Z,191.25
2018-07-02T09:06:53.881Z,191.25
2018-07-02T09:08:47.128Z,191.25
2018-07-02T09:09:47.073Z,191.25
2018-07-02T09:11:40.377Z,191.25
2018-07-02T09:12:40.302Z,191.25
2018-07-02T09:14:33.623Z,191.25
2018-07-02T09:15:33.533Z,191.25
2018-07-02T09:17:26.846Z,191.25
2018-07-02T09:18:26.770Z,191.25
2018-07-02T09:20:20.050Z,196.88
2018-07-02T09:21:19.998Z,196.88
2018-07-02T09:23:13.301Z,196.88
2018-07-02T09:24:13.229Z,196.88
2018-07-02T09:26:07.557Z,196.88
2018-07-02T09:27:07.462Z,196.88
2018-07-02T09:29:01.746Z,196.88
2018-07-02T09:30:01.734Z,196.88
2018-07-02T09:31:54.998Z,196.88
2018-07-02T09:32:54.923Z,196.88
2018-07-02T09:34:49.209Z,191.25
2018-07-02T09:35:49.156Z,191.25
2018-07-02T09:37:42.449Z,191.25
2018-07-02T09:38:42.375Z,191.25
2018-07-02T09:40:35.769Z,191.25
2018-07-02T09:41:35.611Z,191.25
2018-07-02T09:43:28.911Z,191.25
2018-07-02T09:44:28.841Z,191.25
2018-07-02T09:46:22.158Z,191.25
2018-07-02T09:47:22.070Z,191.25
2018-07-02T09:49:15.354Z,191.25
2018-07-02T09:50:15.302Z,191.25
2018-07-02T09:52:08.712Z,191.25
2018-07-02T09:53:08.532Z,191.25
2018-07-02T09:55:01.824Z,185.63
2018-07-02T09:56:01.765Z,191.25
2018-07-02T09:57:55.177Z,191.25
2018-07-02T09:58:54.998Z,191.25
2018-07-02T10:00:48.285Z,191.25
2018-07-02T10:01:48.227Z,191.25
2018-07-02T10:03:41.531Z,191.25
2018-07-02T10:04:41.469Z,191.25
2018-07-02T10:06:34.859Z,191.25
2018-07-02T10:07:34.697Z,191.25
2018-07-02T10:09:28.003Z,191.25
2018-07-02T10:10:27.930Z,191.25
2018-07-02T10:12:21.239Z,191.25
2018-07-02T10:13:21.165Z,191.25
2018-07-02T10:15:14.454Z,191.25
2018-07-02T10:16:14.403Z,191.25
2018-07-02T10:18:07.708Z,191.25
2018-07-02T10:19:07.634Z,191.25
2018-07-02T10:21:01.032Z,185.63
2018-07-02T10:22:00.871Z,185.63
2018-07-02T10:23:54.202Z,185.63
2018-07-02T10:24:54.109Z,185.63
2018-07-02T10:26:47.426Z,185.63
2018-07-02T10:27:47.349Z,185.63
2018-07-02T10:29:40.634Z,185.63
2018-07-02T10:30:40.591Z,185.63
2018-07-02T10:32:34.000Z,191.25
2018-07-02T10:33:33.818Z,185.63
2018-07-02T10:35:27.108Z,185.63
2018-07-02T10:36:27.056Z,185.63
2018-07-02T10:38:20.469Z,185.63
2018-07-02T10:39:20.293Z,191.25
2018-07-02T10:41:13.586Z,185.63
2018-07-02T10:42:13.533Z,185.63
2018-07-02T10:44:06.837Z,185.63
2018-07-02T10:45:06.771Z,180.00
2018-07-02T10:47:00.099Z,180.00
2018-07-02T10:48:00.008Z,180.00
2018-07-02T10:49:53.313Z,180.00
2018-07-02T10:50:53.242Z,180.00
2018-07-02T10:52:46.548Z,185.63
2018-07-02T10:53:46.477Z,180.00
2018-07-02T10:55:39.822Z,180.00
2018-07-02T10:56:39.715Z,180.00
2018-07-02T10:58:33.029Z,180.00
2018-07-02T10:59:32.956Z,180.00
2018-07-02T11:01:26.381Z,174.38
2018-07-02T11:02:26.293Z,174.38
2018-07-02T11:04:19.601Z,180.00
2018-07-02T11:05:19.537Z,180.00
2018-07-02T11:07:12.929Z,180.00
2018-07-02T11:08:12.771Z,180.00
2018-07-02T11:10:06.080Z,174.38
2018-07-02T11:11:06.009Z,174.38
2018-07-02T11:12:59.294Z,174.38
2018-07-02T11:13:59.245Z,174.38
2018-07-02T11:15:52.658Z,168.75
2018-07-02T11:16:52.484Z,168.75
2018-07-02T11:18:45.789Z,168.75
2018-07-02T11:19:45.722Z,168.75
2018-07-02T11:21:39.009Z,168.75
2018-07-02T11:22:38.957Z,168.75
2018-07-02T11:24:32.367Z,163.13
2018-07-02T11:25:32.293Z,163.13
2018-07-02T11:27:25.585Z,157.50
2018-07-02T11:28:25.530Z,157.50
2018-07-02T11:30:18.945Z,157.50
2018-07-02T11:31:18.766Z,151.88
2018-07-02T11:33:12.060Z,151.88
2018-07-02T11:34:12.004Z,146.25
2018-07-02T11:36:05.418Z,140.63
2018-07-02T11:37:05.240Z,140.63
2018-07-02T11:38:58.546Z,140.63
2018-07-02T11:39:58.476Z,140.63
2018-07-02T11:41:51.872Z,146.25
2018-07-02T11:42:51.711Z,146.25
2018-07-02T11:44:45.021Z,146.25
2018-07-02T11:45:44.948Z,146.25
2018-07-02T11:47:38.236Z,146.25
2018-07-02T11:48:38.182Z,140.63
2018-07-02T11:50:31.505Z,135.00
2018-07-02T11:51:31.435Z,135.00
2018-07-02T11:53:24.718Z,135.00
2018-07-02T11:54:24.668Z,135.00
2018-07-02T11:56:18.076Z,135.00
2018-07-02T11:57:17.897Z,135.00
2018-07-02T11:59:11.198Z,129.38
2018-07-02T12:00:11.125Z,140.63
2018-07-02T12:02:04.407Z,129.38
2018-07-02T12:03:04.355Z,135.00
2018-07-02T12:04:57.655Z,135.00
2018-07-02T12:05:57.583Z,129.38
2018-07-02T12:07:50.869Z,129.38
2018-07-02T12:08:50.814Z,129.38
2018-07-02T12:10:45.230Z,129.38
2018-07-02T12:11:45.045Z,129.38
2018-07-02T12:13:38.324Z,129.38
2018-07-02T12:14:38.269Z,129.38
2018-07-02T12:16:31.570Z,129.38
2018-07-02T12:17:31.495Z,129.38
2018-07-02T12:19:24.812Z,129.38
2018-07-02T12:20:24.723Z,129.38
2018-07-02T12:22:18.005Z,129.38
2018-07-02T12:23:17.949Z,129.38
2018-07-02T12:25:11.362Z,129.38
2018-07-02T12:26:11.297Z,129.38
2018-07-02T12:28:04.570Z,129.38
2018-07-02T12:29:04.515Z,129.38
2018-07-02T12:30:57.824Z,129.38
2018-07-02T12:31:57.750Z,129.38
2018-07-02T12:33:51.040Z,129.38
2018-07-02T12:34:50.986Z,129.38
2018-07-02T12:36:44.363Z,123.75
2018-07-02T12:37:44.290Z,123.75
2018-07-02T12:39:37.598Z,123.75
2018-07-02T12:40:37.523Z,129.38
2018-07-02T12:42:30.833Z,123.75
2018-07-02T12:43:30.759Z,129.38
2018-07-02T12:45:24.071Z,123.75
2018-07-02T12:46:23.997Z,123.75
2018-07-02T12:48:17.386Z,123.75
2018-07-02T12:49:17.221Z,123.75
2018-07-02T12:51:10.632Z,123.75
2018-07-02T12:52:10.462Z,123.75
2018-07-02T12:54:03.820Z,123.75
2018-07-02T12:55:03.699Z,123.75
2018-07-02T12:56:57.107Z,118.13
2018-07-02T12:57:56.936Z,118.13
2018-07-02T12:59:50.229Z,118.13
2018-07-02T13:00:50.179Z,118.13
2018-07-02T13:02:43.590Z,118.13
2018-07-02T13:03:43.411Z,118.13
2018-07-02T13:05:36.727Z,123.75
2018-07-02T13:06:36.646Z,123.75
2018-07-02T13:08:29.930Z,123.75
2018-07-02T13:09:29.874Z,123.75
2018-07-02T13:11:23.187Z,123.75
2018-07-02T13:12:23.111Z,123.75
2018-07-02T13:14:16.406Z,123.75
2018-07-02T13:15:16.350Z,123.75
2018-07-02T13:17:10.662Z,123.75
2018-07-02T13:18:10.589Z,123.75
2018-07-02T13:20:03.883Z,123.75
2018-07-02T13:21:03.822Z,123.75
2018-07-02T13:22:57.134Z,118.13
2018-07-02T13:23:57.060Z,118.13
2018-07-02T13:25:50.369Z,118.13
2018-07-02T13:26:50.485Z,118.13
2018-07-02T13:28:43.605Z,118.13
2018-07-02T13:29:43.533Z,118.13
2018-07-02T13:31:37.842Z,118.13
2018-07-02T13:32:37.806Z,118.13
2018-07-02T13:34:31.060Z,118.13
2018-07-02T13:35:31.006Z,118.13
2018-07-02T13:37:24.319Z,118.13
2018-07-02T13:38:24.243Z,118.13
2018-07-02T13:40:17.634Z,118.13
2018-07-02T13:41:17.482Z,123.75
2018-07-02T13:43:10.791Z,118.13
2018-07-02T13:44:10.718Z,118.13
2018-07-02T13:46:04.110Z,118.13
2018-07-02T13:47:03.966Z,118.13
2018-07-02T13:48:57.375Z,118.13
2018-07-02T13:49:57.289Z,118.13
2018-07-02T13:51:50.701Z,123.75
2018-07-02T13:52:50.531Z,118.13
2018-07-02T13:54:43.925Z,118.13
2018-07-02T13:55:43.768Z,118.13
2018-07-02T13:57:37.079Z,118.13
2018-07-02T13:58:37.003Z,118.13
2018-07-02T14:00:30.298Z,118.13
2018-07-02T14:01:30.243Z,118.13
2018-07-02T14:03:23.555Z,118.13
2018-07-02T14:04:23.482Z,118.13
2018-07-02T14:06:16.773Z,112.50
2018-07-02T14:07:16.716Z,118.13
2018-07-02T14:09:10.027Z,112.50
2018-07-02T14:10:09.952Z,112.50
2018-07-02T14:12:04.284Z,112.50
2018-07-02T14:13:04.187Z,112.50
2018-07-02T14:14:57.482Z,112.50
2018-07-02T14:15:57.426Z,112.50
2018-07-02T14:17:50.732Z,112.50
2018-07-02T14:18:50.655Z,112.50
2018-07-02T14:20:43.949Z,112.50
2018-07-02T14:21:43.895Z,112.50
2018-07-02T14:23:37.206Z,112.50
2018-07-02T14:24:37.133Z,112.50
2018-07-02T14:26:30.432Z,112.50
2018-07-02T14:27:30.370Z,112.50
2018-07-02T14:29:23.679Z,112.50
2018-07-02T14:30:23.607Z,112.50
2018-07-02T14:32:16.899Z,112.50
2018-07-02T14:33:16.920Z,112.50
2018-07-02T14:35:10.158Z,112.50
2018-07-02T14:36:10.083Z,112.50
2018-07-02T14:38:03.388Z,112.50
2018-07-02T14:39:03.314Z,112.50
2018-07-02T14:40:57.606Z,112.50
2018-07-02T14:41:57.551Z,112.50
2018-07-02T14:43:50.865Z,112.50
2018-07-02T14:44:50.852Z,112.50
2018-07-02T14:46:44.087Z,112.50
2018-07-02T14:47:44.025Z,106.88
2018-07-02T14:49:37.346Z,106.88
2018-07-02T14:50:37.266Z,106.88
2018-07-02T14:52:30.580Z,106.88
2018-07-02T14:53:30.506Z,106.88
2018-07-02T14:55:23.823Z,106.88
2018-07-02T14:56:23.741Z,106.88
2018-07-02T14:58:17.658Z,106.88
2018-07-02T14:59:16.971Z,106.88
2018-07-02T15:01:10.265Z,106.88
2018-07-02T15:02:10.209Z,106.88
2018-07-02T15:04:03.520Z,106.88
2018-07-02T15:05:03.448Z,106.88
2018-07-02T15:06:56.837Z,106.88
2018-07-02T15:07:56.690Z,106.88
2018-07-02T15:09:50.006Z,106.88
2018-07-02T15:10:49.926Z,106.88
2018-07-02T15:12:43.221Z,106.88
2018-07-02T15:13:43.166Z,106.88
2018-07-02T15:15:36.515Z,106.88
2018-07-02T15:16:36.404Z,106.88
2018-07-02T15:18:29.724Z,106.88
2018-07-02T15:19:29.635Z,106.88
2018-07-02T15:21:22.925Z,106.88
2018-07-02T15:22:22.869Z,106.88
2018-07-02T15:24:16.183Z,106.88
2018-07-02T15:25:16.109Z,106.88
2018-07-02T15:27:09.402Z,106.88
2018-07-02T15:28:09.350Z,106.88
2018-07-02T15:30:02.663Z,106.88
2018-07-02T15:31:02.582Z,101.25
2018-07-02T15:32:55.878Z,101.25
2018-07-02T15:33:55.845Z,101.25
2018-07-02T15:35:49.187Z,101.25
2018-07-02T15:36:49.060Z,101.25
2018-07-02T15:38:42.343Z,101.25
2018-07-02T15:39:42.288Z,101.25
2018-07-02T15:41:35.662Z,101.25
2018-07-02T15:42:35.526Z,101.25
2018-07-02T15:44:28.836Z,101.25
2018-07-02T15:45:28.763Z,101.25
2018-07-02T15:47:22.059Z,101.25
2018-07-02T15:48:22.051Z,101.25
2018-07-02T15:50:15.312Z,101.25
2018-07-02T15:51:15.239Z,101.25
2018-07-02T15:53:08.578Z,101.25
2018-07-02T15:54:08.476Z,101.25
2018-07-02T15:56:01.981Z,101.25
2018-07-02T15:57:01.714Z,101.25
2018-07-02T15:58:55.009Z,101.25
2018-07-02T15:59:54.952Z,101.25
2018-07-02T16:01:48.363Z,101.25
2018-07-02T16:02:48.288Z,101.25
2018-07-02T16:04:41.583Z,101.25
2018-07-02T16:05:41.525Z,101.25
2018-07-02T16:07:34.840Z,95.63
2018-07-02T16:08:34.764Z,95.63
2018-07-02T16:10:28.074Z,95.63
2018-07-02T16:11:28.005Z,95.63
2018-07-02T16:13:21.294Z,95.63
2018-07-02T16:14:21.241Z,95.63
2018-07-02T16:16:14.581Z,95.63
2018-07-02T16:17:14.479Z,95.63
2018-07-02T16:19:07.939Z,95.63
2018-07-02T16:20:07.720Z,95.63
2018-07-02T16:22:01.030Z,95.63
2018-07-02T16:23:00.956Z,95.63
2018-07-02T16:24:54.345Z,95.63
2018-07-02T16:25:54.291Z,95.63
2018-07-02T16:27:47.602Z,95.63
2018-07-02T16:28:47.529Z,95.63
2018-07-02T16:30:40.841Z,90.00
2018-07-02T16:31:40.769Z,90.00
2018-07-02T16:33:34.063Z,90.00
2018-07-02T16:34:34.007Z,90.00
2018-07-02T16:36:27.322Z,90.00
2018-07-02T16:37:27.245Z,90.00
2018-07-02T16:39:20.543Z,90.00
2018-07-02T16:40:20.481Z,90.00
2018-07-02T16:42:13.792Z,90.00
2018-07-02T16:43:13.719Z,90.00
2018-07-02T16:45:07.013Z,84.38
2018-07-02T16:46:06.952Z,84.38
2018-07-02T16:48:00.326Z,84.38
2018-07-02T16:49:00.187Z,84.38
2018-07-02T16:50:53.497Z,84.38
2018-07-02T16:51:53.424Z,84.38
2018-07-02T16:53:46.720Z,84.38
2018-07-02T16:54:46.725Z,84.38
2018-07-02T16:56:39.975Z,84.38
2018-07-02T16:57:39.903Z,84.38
2018-07-02T16:59:33.190Z,78.75
2018-07-02T17:00:33.136Z,78.75
2018-07-02T17:02:26.457Z,78.75
2018-07-02T17:03:26.384Z,78.75
2018-07-02T17:05:19.674Z,78.75
2018-07-02T17:06:19.719Z,78.75
2018-07-02T17:08:12.926Z,78.75
2018-07-02T17:09:12.852Z,78.75
2018-07-02T17:11:06.261Z,73.13
2018-07-02T17:12:06.090Z,73.13
2018-07-02T17:13:59.379Z,73.13
2018-07-02T17:14:59.324Z,73.13
2018-07-02T17:16:52.732Z,73.13
2018-07-02T17:17:52.560Z,73.13
2018-07-02T17:19:45.851Z,67.50
2018-07-02T17:20:45.795Z,67.50
2018-07-02T17:22:39.130Z,67.50
2018-07-02T17:23:39.036Z,67.50
2018-07-02T17:25:32.325Z,67.50
2018-07-02T17:26:32.271Z,67.50
2018-07-02T17:28:25.626Z,67.50
2018-07-02T17:29:25.498Z,67.50
2018-07-02T17:31:18.815Z,61.88
2018-07-02T17:32:18.735Z,61.88
2018-07-02T17:34:12.028Z,61.88
2018-07-02T17:35:11.971Z,61.88
2018-07-02T17:37:05.364Z,61.88
2018-07-02T17:38:05.289Z,61.88
2018-07-02T17:39:58.581Z,61.88
2018-07-02T17:40:58.529Z,56.25
2018-07-02T17:42:51.836Z,56.25
2018-07-02T17:43:51.765Z,56.25
2018-07-02T17:45:45.058Z,56.25
2018-07-02T17:46:44.997Z,56.25
2018-07-02T17:48:39.369Z,56.25
2018-07-02T17:49:39.287Z,56.25
2018-07-02T17:51:32.589Z,56.25
2018-07-02T17:52:32.531Z,56.25
2018-07-02T17:54:25.843Z,56.25
2018-07-02T17:55:25.766Z,56.25
2018-07-02T17:57:20.076Z,56.25
2018-07-02T17:58:20.004Z,56.25
2018-07-02T18:00:13.344Z,56.25
2018-07-02T18:01:13.288Z,56.25
2018-07-02T18:03:06.597Z,56.25
2018-07-02T18:04:06.523Z,56.25
2018-07-02T18:05:59.813Z,50.63
2018-07-02T18:06:59.756Z,50.63
2018-07-02T18:08:53.069Z,50.63
2018-07-02T18:09:52.999Z,50.63
2018-07-02T18:11:47.342Z,50.63
2018-07-02T18:12:47.350Z,50.63
2018-07-02T18:14:40.598Z,50.63
2018-07-02T18:15:40.522Z,45.00
2018-07-02T18:17:34.829Z,45.00
2018-07-02T18:18:34.761Z,45.00
2018-07-02T18:20:29.045Z,45.00
2018-07-02T18:21:28.988Z,45.00
2018-07-02T18:23:22.299Z,45.00